Three Rivers, MI (49093)

5:43 PM EST on November 24, 2014 (GMT -0500)
Three Rivers Municipal-Haines | Change Station
CLOSE
Current Station
Airport
Location: Three Rivers,
Elevation: 823 ft
Nearby Weather Stations

Elev 823 ft 41.96 °N, 85.59 °W | Updated 9 minutes ago

Overcast
Overcast
34 °F
Feels Like 21 °F
N
26
Wind Variable Wind from SW
Gusts 36 mph

Today
High -- | Low -- °F
--% Chance of Precip.
Yesterday
High -- | Low -- °F
Precip. -- in
7:43 AM 5:15 PM
Waxing Crescent, 7% visible
Pressure 29.54 in
Visibility 4.0 miles
Clouds Mostly Cloudy 1000 ft
Overcast 1500 ft
Windchill 21 °F
Dew Point 31 °F
Humidity 89%
Rainfall 0.00 in
Snow Depth Not available.
UV 0 out of 12
Pollen .10 out of 12
Air Quality Not available.
Flu Activity Not available.
METAR KHAI 242234Z AUTO 23023G31KT 4SM BR BKN010 OVC015 01/M01 A2954 RMK AO2 T00101006

More Conditions Fewer Conditions

Pressure 29.54 in
Visibility 4.0 miles
Clouds Mostly Cloudy 1000 ft
Overcast 1500 ft
Windchill 21 °F
Dew Point 31 °F
Humidity 89%
Rainfall 0.00 in
Snow Depth Not available.
UV 0 out of 12
Pollen .10 out of 12
Air Quality Not available.
Flu Activity Not available.
METAR KHAI 242234Z AUTO 23023G31KT 4SM BR BKN010 OVC015 01/M01 A2954 RMK AO2 T00101006

More Conditions Fewer Conditions

10-Day Weather Forecast

Almanac

Astronomy

Nov. 24, 2014 Rise Set
Actual Time
Civil Twilight
Nautical Twilight
Astronomical Twilight
Moon
Length of Visible Light
Length of Day
Tomorrow will be .
, % of the Moon is Illuminated

Today's Extremes

State Highs State Lows

Community

WunderPhotos

Upload Photos

1,773,427 photos uploaded!

WunderBlogs® & News

Nearby

Air Quality

  Air Quality AQ Index Pollutant
Not available.

Snow Depth

Station Depth Elevation

Earthquake Activity

City Distance Mag. Time & Date
Minimum magnitude displayed is 2.5.

Coastal Water Temperatures

Place Temperature

Nearby Weather Stations